sensor_id;sensor_type;location;lat;lon;timestamp;P1;durP1;ratioP1;P2;durP2;ratioP2
57311;SDS011;43154;50.966;18.316;2023-09-30T00:00:05;16.10;;;8.00;;
57311;SDS011;43154;50.966;18.316;2023-09-30T00:00:42;22.60;;;8.50;;
57311;SDS011;43154;50.966;18.316;2023-09-30T00:01:14;15.80;;;8.20;;
57311;SDS011;43154;50.966;18.316;2023-09-30T00:01:45;16.00;;;8.20;;
57311;SDS011;43154;50.966;18.316;2023-09-30T00:02:16;18.10;;;7.70;;
57311;SDS011;43154;50.966;18.316;2023-09-30T00:02:49;16.80;;;8.20;;
57311;SDS011;43154;50.966;18.316;2023-09-30T00:03:21;16.30;;;8.10;;
57311;SDS011;43154;50.966;18.316;2023-09-30T00:03:54;17.80;;;8.30;;
57311;SDS011;43154;50.966;18.316;2023-09-30T00:04:25;18.80;;;8.40;;
57311;SDS011;43154;50.966;18.316;2023-09-30T00:04:57;17.20;;;8.30;;
57311;SDS011;43154;50.966;18.316;2023-09-30T00:05:28;18.00;;;8.20;;
57311;SDS011;43154;50.966;18.316;2023-09-30T00:06:02;17.60;;;8.10;;
57311;SDS011;43154;50.966;18.316;2023-09-30T00:06:34;16.10;;;7.90;;
57311;SDS011;43154;50.966;18.316;2023-09-30T00:07:07;15.00;;;8.30;;
57311;SDS011;43154;50.966;18.316;2023-09-30T00:07:38;15.90;;;8.10;;
57311;SDS011;43154;50.966;18.316;2023-09-30T00:08:09;17.30;;;8.40;;
57311;SDS011;43154;50.966;18.316;2023-09-30T00:08:44;16.70;;;7.50;;
57311;SDS011;43154;50.966;18.316;2023-09-30T00:09:16;16.10;;;8.30;;
57311;SDS011;43154;50.966;18.316;2023-09-30T00:09:50;17.30;;;8.20;;
57311;SDS011;43154;50.966;18.316;2023-09-30T00:10:22;16.60;;;8.00;;
57311;SDS011;43154;50.966;18.316;2023-09-30T00:10:52;18.50;;;8.20;;
57311;SDS011;43154;50.966;18.316;2023-09-30T00:11:24;15.10;;;8.00;;
57311;SDS011;43154;50.966;18.316;2023-09-30T00:12:01;16.80;;;8.40;;
57311;SDS011;43154;50.966;18.316;2023-09-30T00:12:32;17.70;;;8.00;;
57311;SDS011;43154;50.966;18.316;2023-09-30T00:13:05;17.90;;;8.10;;
57311;SDS011;43154;50.966;18.316;2023-09-30T00:13:39;15.70;;;8.50;;
57311;SDS011;43154;50.966;18.316;2023-09-30T00:14:10;16.30;;;7.80;;
57311;SDS011;43154;50.966;18.316;2023-09-30T00:14:44;20.20;;;8.00;;
57311;SDS011;43154;50.966;18.316;2023-09-30T00:15:17;18.20;;;8.20;;
57311;SDS011;43154;50.966;18.316;2023-09-30T00:15:53;15.50;;;7.70;;
57311;SDS011;43154;50.966;18.316;2023-09-30T00:16:24;19.20;;;8.10;;
57311;SDS011;43154;50.966;18.316;2023-09-30T00:16:55;17.00;;;8.00;;
57311;SDS011;43154;50.966;18.316;2023-09-30T00:17:26;17.90;;;8.40;;
57311;SDS011;43154;50.966;18.316;2023-09-30T00:17:57;21.40;;;8.00;;
57311;SDS011;43154;50.966;18.316;2023-09-30T00:18:28;18.30;;;8.10;;
57311;SDS011;43154;50.966;18.316;2023-09-30T00:19:00;16.70;;;7.40;;
57311;SDS011;43154;50.966;18.316;2023-09-30T00:19:32;15.90;;;8.70;;
57311;SDS011;43154;50.966;18.316;2023-09-30T00:20:04;17.50;;;7.90;;
57311;SDS011;43154;50.966;18.316;2023-09-30T00:20:35;18.50;;;8.60;;
57311;SDS011;43154;50.966;18.316;2023-09-30T00:21:09;21.40;;;8.30;;
57311;SDS011;43154;50.966;18.316;2023-09-30T00:21:40;16.70;;;7.90;;
57311;SDS011;43154;50.966;18.316;2023-09-30T00:22:11;17.60;;;8.20;;
57311;SDS011;43154;50.966;18.316;2023-09-30T00:22:42;17.20;;;8.30;;
57311;SDS011;43154;50.966;18.316;2023-09-30T00:23:13;16.00;;;7.70;;
57311;SDS011;43154;50.966;18.316;2023-09-30T00:23:47;15.80;;;8.10;;
57311;SDS011;43154;50.966;18.316;2023-09-30T00:24:21;16.80;;;8.10;;
57311;SDS011;43154;50.966;18.316;2023-09-30T00:24:54;15.40;;;8.00;;
57311;SDS011;43154;50.966;18.316;2023-09-30T00:25:25;17.10;;;8.40;;
57311;SDS011;43154;50.966;18.316;2023-09-30T00:25:58;16.90;;;8.20;;
57311;SDS011;43154;50.966;18.316;2023-09-30T00:26:32;15.60;;;7.90;;
57311;SDS011;43154;50.966;18.316;2023-09-30T00:27:06;17.80;;;8.20;;
57311;SDS011;43154;50.966;18.316;2023-09-30T00:27:45;16.40;;;8.00;;
57311;SDS011;43154;50.966;18.316;2023-09-30T00:28:16;15.80;;;8.40;;
57311;SDS011;43154;50.966;18.316;2023-09-30T00:28:50;15.80;;;7.80;;
57311;SDS011;43154;50.966;18.316;2023-09-30T00:29:21;18.20;;;7.80;;
57311;SDS011;43154;50.966;18.316;2023-09-30T00:29:57;17.30;;;8.50;;
57311;SDS011;43154;50.966;18.316;2023-09-30T00:30:27;17.70;;;8.70;;
57311;SDS011;43154;50.966;18.316;2023-09-30T00:31:01;17.20;;;8.20;;
57311;SDS011;43154;50.966;18.316;2023-09-30T00:31:43;17.70;;;8.80;;
57311;SDS011;43154;50.966;18.316;2023-09-30T00:32:14;17.30;;;8.20;;
57311;SDS011;43154;50.966;18.316;2023-09-30T00:32:45;16.00;;;8.20;;
57311;SDS011;43154;50.966;18.316;2023-09-30T00:33:19;17.50;;;7.90;;
57311;SDS011;43154;50.966;18.316;2023-09-30T00:33:50;17.00;;;8.40;;
57311;SDS011;43154;50.966;18.316;2023-09-30T00:34:21;18.00;;;8.20;;
57311;SDS011;43154;50.966;18.316;2023-09-30T00:34:52;17.60;;;8.50;;
57311;SDS011;43154;50.966;18.316;2023-09-30T00:35:26;18.00;;;8.90;;
57311;SDS011;43154;50.966;18.316;2023-09-30T00:36:00;20.60;;;8.40;;
57311;SDS011;43154;50.966;18.316;2023-09-30T00:36:38;18.60;;;8.60;;
57311;SDS011;43154;50.966;18.316;2023-09-30T00:37:14;16.80;;;8.10;;
57311;SDS011;43154;50.966;18.316;2023-09-30T00:37:45;17.40;;;8.70;;
57311;SDS011;43154;50.966;18.316;2023-09-30T00:38:21;17.90;;;8.50;;
57311;SDS011;43154;50.966;18.316;2023-09-30T00:39:32;18.20;;;8.40;;
57311;SDS011;43154;50.966;18.316;2023-09-30T00:40:03;21.10;;;8.40;;
57311;SDS011;43154;50.966;18.316;2023-09-30T00:40:35;17.90;;;8.20;;
57311;SDS011;43154;50.966;18.316;2023-09-30T00:41:10;16.60;;;8.20;;
57311;SDS011;43154;50.966;18.316;2023-09-30T00:41:41;16.50;;;8.00;;
57311;SDS011;43154;50.966;18.316;2023-09-30T00:42:17;17.70;;;8.40;;
57311;SDS011;43154;50.966;18.316;2023-09-30T00:42:48;17.40;;;8.80;;
57311;SDS011;43154;50.966;18.316;2023-09-30T00:43:22;17.90;;;8.00;;
57311;SDS011;43154;50.966;18.316;2023-09-30T00:43:55;18.60;;;8.40;;
57311;SDS011;43154;50.966;18.316;2023-09-30T00:44:30;17.60;;;8.00;;
57311;SDS011;43154;50.966;18.316;2023-09-30T00:45:03;19.50;;;8.30;;
57311;SDS011;43154;50.966;18.316;2023-09-30T00:45:35;18.50;;;8.10;;
57311;SDS011;43154;50.966;18.316;2023-09-30T00:46:27;17.90;;;8.50;;
57311;SDS011;43154;50.966;18.316;2023-09-30T00:46:59;19.00;;;8.30;;
57311;SDS011;43154;50.966;18.316;2023-09-30T00:47:33;18.80;;;8.40;;
57311;SDS011;43154;50.966;18.316;2023-09-30T00:48:05;21.20;;;8.80;;
57311;SDS011;43154;50.966;18.316;2023-09-30T00:48:36;21.70;;;8.70;;
57311;SDS011;43154;50.966;18.316;2023-09-30T00:49:08;18.00;;;8.30;;
57311;SDS011;43154;50.966;18.316;2023-09-30T00:49:45;16.80;;;8.30;;
57311;SDS011;43154;50.966;18.316;2023-09-30T00:50:24;18.30;;;8.50;;
57311;SDS011;43154;50.966;18.316;2023-09-30T00:50:57;18.00;;;8.30;;
57311;SDS011;43154;50.966;18.316;2023-09-30T00:51:28;17.40;;;8.10;;
57311;SDS011;43154;50.966;18.316;2023-09-30T00:51:59;16.40;;;8.00;;
57311;SDS011;43154;50.966;18.316;2023-09-30T00:52:32;18.20;;;8.60;;
57311;SDS011;43154;50.966;18.316;2023-09-30T00:53:03;17.10;;;8.40;;
57311;SDS011;43154;50.966;18.316;2023-09-30T00:53:35;18.40;;;8.20;;
57311;SDS011;43154;50.966;18.316;2023-09-30T00:54:09;17.30;;;8.20;;
57311;SDS011;43154;50.966;18.316;2023-09-30T00:54:41;16.50;;;8.30;;
57311;SDS011;43154;50.966;18.316;2023-09-30T00:55:14;18.80;;;8.00;;
57311;SDS011;43154;50.966;18.316;2023-09-30T00:55:49;19.60;;;8.50;;
57311;SDS011;43154;50.966;18.316;2023-09-30T00:56:27;16.90;;;8.30;;
57311;SDS011;43154;50.966;18.316;2023-09-30T00:56:58;18.80;;;8.60;;
57311;SDS011;43154;50.966;18.316;2023-09-30T00:57:32;16.80;;;8.40;;
57311;SDS011;43154;50.966;18.316;2023-09-30T00:58:04;17.40;;;8.60;;
57311;SDS011;43154;50.966;18.316;2023-09-30T00:58:41;15.40;;;8.10;;
57311;SDS011;43154;50.966;18.316;2023-09-30T00:59:15;17.60;;;8.40;;
57311;SDS011;43154;50.966;18.316;2023-09-30T00:59:59;19.40;;;8.30;;
57311;SDS011;43154;50.966;18.316;2023-09-30T01:00:33;18.50;;;8.40;;
57311;SDS011;43154;50.966;18.316;2023-09-30T01:01:05;17.50;;;8.40;;
57311;SDS011;43154;50.966;18.316;2023-09-30T01:01:38;17.30;;;8.30;;
57311;SDS011;43154;50.966;18.316;2023-09-30T01:02:09;18.60;;;8.70;;
57311;SDS011;43154;50.966;18.316;2023-09-30T01:02:40;18.10;;;8.30;;
57311;SDS011;43154;50.966;18.316;2023-09-30T01:03:12;18.50;;;8.40;;
57311;SDS011;43154;50.966;18.316;2023-09-30T01:03:43;18.70;;;8.70;;
57311;SDS011;43154;50.966;18.316;2023-09-30T01:04:17;18.50;;;8.40;;
57311;SDS011;43154;50.966;18.316;2023-09-30T01:04:52;18.70;;;8.70;;
57311;SDS011;43154;50.966;18.316;2023-09-30T01:05:23;16.30;;;8.50;;
57311;SDS011;43154;50.966;18.316;2023-09-30T01:05:57;16.10;;;8.30;;
57311;SDS011;43154;50.966;18.316;2023-09-30T01:06:28;15.60;;;8.30;;
57311;SDS011;43154;50.966;18.316;2023-09-30T01:06:59;17.40;;;8.80;;
57311;SDS011;43154;50.966;18.316;2023-09-30T01:07:30;17.70;;;9.20;;
57311;SDS011;43154;50.966;18.316;2023-09-30T01:08:03;18.00;;;8.50;;
57311;SDS011;43154;50.966;18.316;2023-09-30T01:08:34;16.00;;;8.50;;
57311;SDS011;43154;50.966;18.316;2023-09-30T01:09:05;20.10;;;8.90;;
57311;SDS011;43154;50.966;18.316;2023-09-30T01:09:37;18.50;;;8.10;;
57311;SDS011;43154;50.966;18.316;2023-09-30T01:10:09;18.00;;;8.80;;
57311;SDS011;43154;50.966;18.316;2023-09-30T01:10:40;17.20;;;8.40;;
57311;SDS011;43154;50.966;18.316;2023-09-30T01:11:13;17.90;;;8.70;;
57311;SDS011;43154;50.966;18.316;2023-09-30T01:11:48;18.30;;;9.00;;
57311;SDS011;43154;50.966;18.316;2023-09-30T01:12:21;18.40;;;8.40;;
57311;SDS011;43154;50.966;18.316;2023-09-30T01:12:52;19.60;;;8.90;;
57311;SDS011;43154;50.966;18.316;2023-09-30T01:13:26;15.80;;;8.30;;
57311;SDS011;43154;50.966;18.316;2023-09-30T01:14:02;17.60;;;8.60;;
57311;SDS011;43154;50.966;18.316;2023-09-30T01:14:34;17.10;;;8.30;;
57311;SDS011;43154;50.966;18.316;2023-09-30T01:15:12;18.60;;;8.40;;
57311;SDS011;43154;50.966;18.316;2023-09-30T01:15:43;17.60;;;8.30;;
57311;SDS011;43154;50.966;18.316;2023-09-30T01:16:17;15.40;;;8.20;;
57311;SDS011;43154;50.966;18.316;2023-09-30T01:16:48;17.00;;;8.40;;
57311;SDS011;43154;50.966;18.316;2023-09-30T01:17:19;15.40;;;8.10;;
57311;SDS011;43154;50.966;18.316;2023-09-30T01:17:54;16.30;;;8.20;;
57311;SDS011;43154;50.966;18.316;2023-09-30T01:18:25;15.40;;;8.20;;
57311;SDS011;43154;50.966;18.316;2023-09-30T01:18:59;16.60;;;8.00;;
57311;SDS011;43154;50.966;18.316;2023-09-30T01:19:30;19.20;;;8.50;;
57311;SDS011;43154;50.966;18.316;2023-09-30T01:20:01;16.30;;;8.40;;
57311;SDS011;43154;50.966;18.316;2023-09-30T01:20:36;17.90;;;8.20;;
57311;SDS011;43154;50.966;18.316;2023-09-30T01:21:10;18.40;;;8.20;;
57311;SDS011;43154;50.966;18.316;2023-09-30T01:21:44;17.60;;;8.30;;
57311;SDS011;43154;50.966;18.316;2023-09-30T01:22:19;18.90;;;8.50;;
57311;SDS011;43154;50.966;18.316;2023-09-30T01:22:50;17.50;;;8.50;;
57311;SDS011;43154;50.966;18.316;2023-09-30T01:23:25;17.30;;;8.20;;
57311;SDS011;43154;50.966;18.316;2023-09-30T01:23:56;16.50;;;8.20;;
57311;SDS011;43154;50.966;18.316;2023-09-30T01:24:26;20.00;;;8.50;;
57311;SDS011;43154;50.966;18.316;2023-09-30T01:25:00;16.40;;;8.00;;
57311;SDS011;43154;50.966;18.316;2023-09-30T01:25:34;17.30;;;8.40;;
57311;SDS011;43154;50.966;18.316;2023-09-30T01:26:07;18.50;;;8.40;;
57311;SDS011;43154;50.966;18.316;2023-09-30T01:26:39;20.20;;;8.50;;
57311;SDS011;43154;50.966;18.316;2023-09-30T01:27:10;19.30;;;9.10;;
57311;SDS011;43154;50.966;18.316;2023-09-30T01:27:44;18.20;;;8.30;;
57311;SDS011;43154;50.966;18.316;2023-09-30T01:28:15;20.40;;;8.70;;
57311;SDS011;43154;50.966;18.316;2023-09-30T01:28:51;16.80;;;8.60;;
57311;SDS011;43154;50.966;18.316;2023-09-30T01:29:22;19.30;;;8.40;;
57311;SDS011;43154;50.966;18.316;2023-09-30T01:29:58;18.20;;;8.30;;
57311;SDS011;43154;50.966;18.316;2023-09-30T01:30:29;19.20;;;8.40;;
57311;SDS011;43154;50.966;18.316;2023-09-30T01:31:02;17.10;;;8.20;;
57311;SDS011;43154;50.966;18.316;2023-09-30T01:31:33;17.60;;;8.90;;
57311;SDS011;43154;50.966;18.316;2023-09-30T01:32:07;19.20;;;8.20;;
57311;SDS011;43154;50.966;18.316;2023-09-30T01:32:42;16.80;;;8.30;;
57311;SDS011;43154;50.966;18.316;2023-09-30T01:33:13;17.30;;;9.10;;
57311;SDS011;43154;50.966;18.316;2023-09-30T01:33:44;18.70;;;9.50;;
57311;SDS011;43154;50.966;18.316;2023-09-30T01:34:15;18.40;;;9.40;;
57311;SDS011;43154;50.966;18.316;2023-09-30T01:34:50;18.60;;;9.20;;
57311;SDS011;43154;50.966;18.316;2023-09-30T01:35:20;18.80;;;9.20;;
57311;SDS011;43154;50.966;18.316;2023-09-30T01:35:52;18.30;;;9.40;;
57311;SDS011;43154;50.966;18.316;2023-09-30T01:36:23;20.50;;;9.90;;
57311;SDS011;43154;50.966;18.316;2023-09-30T01:36:55;20.50;;;9.10;;
57311;SDS011;43154;50.966;18.316;2023-09-30T01:37:26;17.40;;;9.30;;
57311;SDS011;43154;50.966;18.316;2023-09-30T01:38:01;21.10;;;10.00;;
57311;SDS011;43154;50.966;18.316;2023-09-30T01:38:32;18.60;;;9.50;;
57311;SDS011;43154;50.966;18.316;2023-09-30T01:39:03;17.50;;;9.20;;
57311;SDS011;43154;50.966;18.316;2023-09-30T01:39:37;19.60;;;9.90;;
57311;SDS011;43154;50.966;18.316;2023-09-30T01:40:11;20.10;;;9.40;;
57311;SDS011;43154;50.966;18.316;2023-09-30T01:40:48;16.80;;;9.10;;
57311;SDS011;43154;50.966;18.316;2023-09-30T01:41:19;21.40;;;10.00;;
57311;SDS011;43154;50.966;18.316;2023-09-30T01:41:50;18.50;;;9.90;;
57311;SDS011;43154;50.966;18.316;2023-09-30T01:42:21;17.40;;;9.50;;
57311;SDS011;43154;50.966;18.316;2023-09-30T01:42:52;18.60;;;9.50;;
57311;SDS011;43154;50.966;18.316;2023-09-30T01:43:23;19.40;;;9.80;;
57311;SDS011;43154;50.966;18.316;2023-09-30T01:43:54;18.60;;;9.60;;
57311;SDS011;43154;50.966;18.316;2023-09-30T01:44:25;17.70;;;9.50;;
57311;SDS011;43154;50.966;18.316;2023-09-30T01:45:02;20.70;;;10.00;;
57311;SDS011;43154;50.966;18.316;2023-09-30T01:45:33;18.40;;;9.70;;
57311;SDS011;43154;50.966;18.316;2023-09-30T01:46:06;17.90;;;9.30;;
57311;SDS011;43154;50.966;18.316;2023-09-30T01:46:39;18.40;;;9.00;;
57311;SDS011;43154;50.966;18.316;2023-09-30T01:47:11;17.80;;;10.10;;
57311;SDS011;43154;50.966;18.316;2023-09-30T01:47:42;20.00;;;10.00;;
57311;SDS011;43154;50.966;18.316;2023-09-30T01:48:13;17.80;;;9.90;;
57311;SDS011;43154;50.966;18.316;2023-09-30T01:48:47;19.40;;;9.60;;
57311;SDS011;43154;50.966;18.316;2023-09-30T01:49:20;22.00;;;9.90;;
57311;SDS011;43154;50.966;18.316;2023-09-30T01:49:57;19.00;;;9.40;;
57311;SDS011;43154;50.966;18.316;2023-09-30T01:50:28;17.30;;;9.60;;
57311;SDS011;43154;50.966;18.316;2023-09-30T01:50:58;19.90;;;10.00;;
57311;SDS011;43154;50.966;18.316;2023-09-30T01:51:32;18.70;;;9.80;;
57311;SDS011;43154;50.966;18.316;2023-09-30T01:52:03;18.20;;;9.90;;
57311;SDS011;43154;50.966;18.316;2023-09-30T01:52:34;20.20;;;10.10;;
57311;SDS011;43154;50.966;18.316;2023-09-30T01:53:08;21.70;;;10.30;;
57311;SDS011;43154;50.966;18.316;2023-09-30T01:53:39;18.00;;;10.30;;
57311;SDS011;43154;50.966;18.316;2023-09-30T01:54:11;22.50;;;10.50;;
57311;SDS011;43154;50.966;18.316;2023-09-30T01:54:44;21.90;;;10.50;;
57311;SDS011;43154;50.966;18.316;2023-09-30T01:55:18;19.10;;;10.10;;
57311;SDS011;43154;50.966;18.316;2023-09-30T01:55:49;20.50;;;10.20;;
57311;SDS011;43154;50.966;18.316;2023-09-30T01:56:20;19.50;;;10.20;;
57311;SDS011;43154;50.966;18.316;2023-09-30T01:56:51;19.20;;;10.40;;
57311;SDS011;43154;50.966;18.316;2023-09-30T01:57:24;18.70;;;10.20;;
57311;SDS011;43154;50.966;18.316;2023-09-30T01:57:55;18.00;;;10.30;;
57311;SDS011;43154;50.966;18.316;2023-09-30T01:58:28;18.80;;;10.40;;
57311;SDS011;43154;50.966;18.316;2023-09-30T01:59:01;22.00;;;10.10;;
57311;SDS011;43154;50.966;18.316;2023-09-30T01:59:32;20.30;;;10.20;;
57311;SDS011;43154;50.966;18.316;2023-09-30T02:00:04;18.70;;;10.30;;
57311;SDS011;43154;50.966;18.316;2023-09-30T02:00:36;21.20;;;10.40;;
57311;SDS011;43154;50.966;18.316;2023-09-30T02:01:10;21.50;;;10.50;;
57311;SDS011;43154;50.966;18.316;2023-09-30T02:01:44;17.70;;;9.80;;
57311;SDS011;43154;50.966;18.316;2023-09-30T02:02:18;21.70;;;10.70;;
57311;SDS011;43154;50.966;18.316;2023-09-30T02:02:49;18.80;;;10.40;;
57311;SDS011;43154;50.966;18.316;2023-09-30T02:03:20;20.30;;;10.40;;
57311;SDS011;43154;50.966;18.316;2023-09-30T02:03:54;19.90;;;10.60;;
57311;SDS011;43154;50.966;18.316;2023-09-30T02:04:28;18.20;;;10.50;;
57311;SDS011;43154;50.966;18.316;2023-09-30T02:04:59;20.60;;;11.00;;
57311;SDS011;43154;50.966;18.316;2023-09-30T02:05:34;18.80;;;10.90;;
57311;SDS011;43154;50.966;18.316;2023-09-30T02:06:05;19.20;;;10.50;;
57311;SDS011;43154;50.966;18.316;2023-09-30T02:06:36;20.30;;;10.00;;
57311;SDS011;43154;50.966;18.316;2023-09-30T02:07:10;18.30;;;11.10;;
57311;SDS011;43154;50.966;18.316;2023-09-30T02:07:41;17.80;;;10.50;;
57311;SDS011;43154;50.966;18.316;2023-09-30T02:08:12;19.10;;;10.70;;
57311;SDS011;43154;50.966;18.316;2023-09-30T02:08:44;19.10;;;10.80;;
57311;SDS011;43154;50.966;18.316;2023-09-30T02:09:15;18.10;;;10.40;;
57311;SDS011;43154;50.966;18.316;2023-09-30T02:09:50;20.70;;;11.20;;
57311;SDS011;43154;50.966;18.316;2023-09-30T02:10:20;19.20;;;10.90;;
57311;SDS011;43154;50.966;18.316;2023-09-30T02:10:54;20.20;;;10.70;;
57311;SDS011;43154;50.966;18.316;2023-09-30T02:11:25;19.00;;;10.60;;
57311;SDS011;43154;50.966;18.316;2023-09-30T02:11:59;19.40;;;10.90;;
57311;SDS011;43154;50.966;18.316;2023-09-30T02:12:32;21.90;;;11.10;;
57311;SDS011;43154;50.966;18.316;2023-09-30T02:13:03;19.50;;;10.70;;
57311;SDS011;43154;50.966;18.316;2023-09-30T02:13:37;20.60;;;11.00;;
57311;SDS011;43154;50.966;18.316;2023-09-30T02:14:09;20.10;;;10.30;;
57311;SDS011;43154;50.966;18.316;2023-09-30T02:14:42;22.50;;;11.30;;
57311;SDS011;43154;50.966;18.316;2023-09-30T02:15:16;20.60;;;11.30;;
57311;SDS011;43154;50.966;18.316;2023-09-30T02:15:50;20.60;;;11.40;;
57311;SDS011;43154;50.966;18.316;2023-09-30T02:16:21;19.00;;;10.60;;
57311;SDS011;43154;50.966;18.316;2023-09-30T02:16:53;19.40;;;11.00;;
57311;SDS011;43154;50.966;18.316;2023-09-30T02:17:24;19.10;;;10.80;;
57311;SDS011;43154;50.966;18.316;2023-09-30T02:17:55;21.60;;;10.40;;
57311;SDS011;43154;50.966;18.316;2023-09-30T02:18:30;22.30;;;11.30;;
57311;SDS011;43154;50.966;18.316;2023-09-30T02:19:07;21.30;;;10.90;;
57311;SDS011;43154;50.966;18.316;2023-09-30T02:19:41;21.50;;;11.60;;
57311;SDS011;43154;50.966;18.316;2023-09-30T02:20:15;19.20;;;11.20;;
57311;SDS011;43154;50.966;18.316;2023-09-30T02:20:56;19.50;;;11.10;;
57311;SDS011;43154;50.966;18.316;2023-09-30T02:21:29;21.90;;;11.50;;
57311;SDS011;43154;50.966;18.316;2023-09-30T02:22:00;22.20;;;12.00;;
57311;SDS011;43154;50.966;18.316;2023-09-30T02:22:35;21.60;;;11.50;;
57311;SDS011;43154;50.966;18.316;2023-09-30T02:23:10;22.40;;;11.90;;
57311;SDS011;43154;50.966;18.316;2023-09-30T02:23:49;21.10;;;11.20;;
57311;SDS011;43154;50.966;18.316;2023-09-30T02:24:27;21.50;;;11.00;;
57311;SDS011;43154;50.966;18.316;2023-09-30T02:24:58;19.20;;;11.20;;
57311;SDS011;43154;50.966;18.316;2023-09-30T02:25:29;21.70;;;11.70;;
57311;SDS011;43154;50.966;18.316;2023-09-30T02:26:01;21.00;;;11.70;;
57311;SDS011;43154;50.966;18.316;2023-09-30T02:26:33;21.50;;;11.40;;
57311;SDS011;43154;50.966;18.316;2023-09-30T02:27:04;22.70;;;11.60;;
57311;SDS011;43154;50.966;18.316;2023-09-30T02:27:41;22.20;;;12.00;;
57311;SDS011;43154;50.966;18.316;2023-09-30T02:28:12;21.50;;;11.40;;
57311;SDS011;43154;50.966;18.316;2023-09-30T02:28:46;21.10;;;11.50;;
57311;SDS011;43154;50.966;18.316;2023-09-30T02:29:17;20.80;;;12.00;;
57311;SDS011;43154;50.966;18.316;2023-09-30T02:29:51;21.50;;;11.20;;
57311;SDS011;43154;50.966;18.316;2023-09-30T02:30:24;19.10;;;11.30;;
57311;SDS011;43154;50.966;18.316;2023-09-30T02:30:55;20.70;;;11.60;;
57311;SDS011;43154;50.966;18.316;2023-09-30T02:31:27;19.70;;;11.40;;
57311;SDS011;43154;50.966;18.316;2023-09-30T02:31:59;20.20;;;11.90;;
57311;SDS011;43154;50.966;18.316;2023-09-30T02:32:33;21.40;;;12.00;;
57311;SDS011;43154;50.966;18.316;2023-09-30T02:33:03;19.80;;;11.80;;
57311;SDS011;43154;50.966;18.316;2023-09-30T02:33:37;19.90;;;11.70;;
57311;SDS011;43154;50.966;18.316;2023-09-30T02:34:45;22.40;;;11.50;;
57311;SDS011;43154;50.966;18.316;2023-09-30T02:35:17;22.40;;;11.80;;
57311;SDS011;43154;50.966;18.316;2023-09-30T02:35:48;19.60;;;11.90;;
57311;SDS011;43154;50.966;18.316;2023-09-30T02:36:20;20.50;;;12.20;;
57311;SDS011;43154;50.966;18.316;2023-09-30T02:36:54;20.00;;;11.60;;
57311;SDS011;43154;50.966;18.316;2023-09-30T02:37:28;22.40;;;12.10;;
57311;SDS011;43154;50.966;18.316;2023-09-30T02:38:05;24.50;;;12.00;;
57311;SDS011;43154;50.966;18.316;2023-09-30T02:38:41;20.60;;;11.90;;
57311;SDS011;43154;50.966;18.316;2023-09-30T02:39:13;19.60;;;11.60;;
57311;SDS011;43154;50.966;18.316;2023-09-30T02:39:46;21.70;;;12.50;;
57311;SDS011;43154;50.966;18.316;2023-09-30T02:40:20;21.80;;;11.80;;
57311;SDS011;43154;50.966;18.316;2023-09-30T02:40:55;21.90;;;12.30;;
57311;SDS011;43154;50.966;18.316;2023-09-30T02:41:26;22.70;;;12.60;;
57311;SDS011;43154;50.966;18.316;2023-09-30T02:41:59;20.90;;;12.50;;
57311;SDS011;43154;50.966;18.316;2023-09-30T02:42:33;19.20;;;11.90;;
57311;SDS011;43154;50.966;18.316;2023-09-30T02:43:07;22.00;;;12.30;;
57311;SDS011;43154;50.966;18.316;2023-09-30T02:43:38;19.60;;;12.00;;
57311;SDS011;43154;50.966;18.316;2023-09-30T02:44:09;25.60;;;12.70;;
57311;SDS011;43154;50.966;18.316;2023-09-30T02:44:40;23.10;;;12.40;;
57311;SDS011;43154;50.966;18.316;2023-09-30T02:45:12;22.40;;;12.20;;
57311;SDS011;43154;50.966;18.316;2023-09-30T02:45:49;20.30;;;12.00;;
57311;SDS011;43154;50.966;18.316;2023-09-30T02:46:20;21.70;;;12.00;;
57311;SDS011;43154;50.966;18.316;2023-09-30T02:46:54;20.10;;;12.40;;
57311;SDS011;43154;50.966;18.316;2023-09-30T02:47:27;22.30;;;12.10;;
57311;SDS011;43154;50.966;18.316;2023-09-30T02:47:58;21.30;;;12.50;;
57311;SDS011;43154;50.966;18.316;2023-09-30T02:48:31;22.20;;;12.40;;
57311;SDS011;43154;50.966;18.316;2023-09-30T02:49:10;21.50;;;12.00;;
57311;SDS011;43154;50.966;18.316;2023-09-30T02:49:44;19.90;;;12.00;;
57311;SDS011;43154;50.966;18.316;2023-09-30T02:50:15;25.50;;;12.40;;
57311;SDS011;43154;50.966;18.316;2023-09-30T02:50:46;21.80;;;12.10;;
57311;SDS011;43154;50.966;18.316;2023-09-30T02:51:22;20.20;;;12.20;;
57311;SDS011;43154;50.966;18.316;2023-09-30T02:51:54;20.40;;;12.10;;
57311;SDS011;43154;50.966;18.316;2023-09-30T02:52:25;19.90;;;12.30;;
57311;SDS011;43154;50.966;18.316;2023-09-30T02:52:58;21.60;;;12.90;;
57311;SDS011;43154;50.966;18.316;2023-09-30T02:53:31;22.40;;;12.00;;
57311;SDS011;43154;50.966;18.316;2023-09-30T02:54:05;19.20;;;11.60;;
57311;SDS011;43154;50.966;18.316;2023-09-30T02:54:36;23.30;;;12.80;;
57311;SDS011;43154;50.966;18.316;2023-09-30T02:55:13;23.00;;;13.30;;
57311;SDS011;43154;50.966;18.316;2023-09-30T02:55:44;21.20;;;12.20;;
57311;SDS011;43154;50.966;18.316;2023-09-30T02:56:18;20.70;;;12.30;;
57311;SDS011;43154;50.966;18.316;2023-09-30T02:56:52;23.10;;;13.00;;
57311;SDS011;43154;50.966;18.316;2023-09-30T02:57:25;21.40;;;12.90;;
57311;SDS011;43154;50.966;18.316;2023-09-30T02:58:44;22.10;;;12.40;;
57311;SDS011;43154;50.966;18.316;2023-09-30T02:59:15;23.50;;;12.80;;
57311;SDS011;43154;50.966;18.316;2023-09-30T02:59:47;21.20;;;12.50;;
57311;SDS011;43154;50.966;18.316;2023-09-30T03:00:18;21.00;;;12.90;;
57311;SDS011;43154;50.966;18.316;2023-09-30T03:00:56;21.90;;;12.70;;
57311;SDS011;43154;50.966;18.316;2023-09-30T03:01:27;21.70;;;12.90;;
57311;SDS011;43154;50.966;18.316;2023-09-30T03:01:58;24.00;;;13.20;;
57311;SDS011;43154;50.966;18.316;2023-09-30T03:02:29;21.60;;;13.10;;
57311;SDS011;43154;50.966;18.316;2023-09-30T03:03:04;22.00;;;13.00;;
57311;SDS011;43154;50.966;18.316;2023-09-30T03:03:35;21.00;;;13.10;;
57311;SDS011;43154;50.966;18.316;2023-09-30T03:04:06;22.90;;;13.10;;
57311;SDS011;43154;50.966;18.316;2023-09-30T03:04:37;25.80;;;13.10;;
57311;SDS011;43154;50.966;18.316;2023-09-30T03:05:11;24.50;;;13.50;;
57311;SDS011;43154;50.966;18.316;2023-09-30T03:05:46;22.60;;;13.30;;
57311;SDS011;43154;50.966;18.316;2023-09-30T03:06:19;24.20;;;13.20;;
57311;SDS011;43154;50.966;18.316;2023-09-30T03:06:50;22.30;;;13.20;;
57311;SDS011;43154;50.966;18.316;2023-09-30T03:07:21;23.80;;;13.50;;
57311;SDS011;43154;50.966;18.316;2023-09-30T03:07:53;24.10;;;13.30;;
57311;SDS011;43154;50.966;18.316;2023-09-30T03:08:27;22.60;;;13.70;;
57311;SDS011;43154;50.966;18.316;2023-09-30T03:09:01;22.70;;;13.20;;
57311;SDS011;43154;50.966;18.316;2023-09-30T03:09:34;22.60;;;13.50;;
57311;SDS011;43154;50.966;18.316;2023-09-30T03:10:07;22.10;;;12.90;;
57311;SDS011;43154;50.966;18.316;2023-09-30T03:10:39;21.60;;;13.40;;
57311;SDS011;43154;50.966;18.316;2023-09-30T03:11:11;21.90;;;13.30;;
57311;SDS011;43154;50.966;18.316;2023-09-30T03:11:42;23.40;;;13.40;;
57311;SDS011;43154;50.966;18.316;2023-09-30T03:12:19;22.20;;;13.30;;
57311;SDS011;43154;50.966;18.316;2023-09-30T03:12:50;23.10;;;12.80;;